CheckWX is a tool to help pilots better visualize weather data.  It is not intended as a substitute for an official pre-flight weather briefing.

06:21:11 UTC

KHIF TAF
Hill AFB Airport
Ogden, Utah, USA
TAF KHIF 310514Z 3105/0111 12009KT 9999 VCSH BKN070 QNH3003INS BECMG 3108/3109 20009KT 9000 -RA BKN050 QNH3000INS BECMG 3117/3118 22015G20KT 9999 NSW BKN060 510003 QNH2995INS BECMG 0100/0101 10009KT 9999 BKN080 QNH2983INS TX15/3122Z TN04/3114Z LAST NO AMDS AFT 3105 NEXT 3113

Mar-31@
05:00 UTC

Mar-31 @ 05:00 UTC

Mar-31@
08:00 UTC

Mar-31 @ 08:00 UTC

TAF KHIF 310514Z 3105/0111 12009KT 9999 VCSH BKN070 QNH3003INS
Wind
  • 120° at 9 KTS
Conditions
Area Showers
Cloud Levels
  • Broken at 7,000' AGL

Mar-31@
08:00 UTC

Mar-31 @ 08:00 UTC

Mar-31@
17:00 UTC

Mar-31 @ 17:00 UTC

BECMG 3108/3109 20009KT 9000 -RA BKN050 QNH3000INS

Becoming

Becoming Conditions expected by Tue, Mar 31, 2020 @ 09:00 UTC

Wind
  • 200° at 9 KTS
Conditions
Light Rain
Cloud Levels
  • Broken at 5,000' AGL

Mar-31@
17:00 UTC

Mar-31 @ 17:00 UTC

Apr-1@
00:00 UTC

Apr-1 @ 00:00 UTC

BECMG 3117/3118 22015G20KT 9999 NSW BKN060 510003 QNH2995INS

Becoming

Becoming Conditions expected by Tue, Mar 31, 2020 @ 18:00 UTC

Wind
  • 220° at 15 KTS
  • {Gusting to 20 KTS
Conditions
No significant weather
Cloud Levels
  • Broken at 6,000' AGL

Apr-1@
00:00 UTC

Apr-1 @ 00:00 UTC

Apr-1@
11:00 UTC

Apr-1 @ 11:00 UTC

BECMG 0100/0101 10009KT 9999 BKN080 QNH2983INS TX15/3122Z TN04/3114Z LAST NO AMDS AFT 3105 NEXT 3113

Becoming

Becoming Conditions expected by Wed, Apr 1, 2020 @ 01:00 UTC

Wind
  • 100° at 9 KTS
Conditions
No significant weather
Cloud Levels
  • Broken at 8,000' AGL